sensor_id;sensor_type;location;lat;lon;timestamp;P1;durP1;ratioP1;P2;durP2;ratioP2
1346;SDS011;667;48.796;9.480;2023-02-21T00:01:27;5.45;;;3.85;;
1346;SDS011;667;48.796;9.480;2023-02-21T00:04:11;5.68;;;4.47;;
1346;SDS011;667;48.796;9.480;2023-02-21T00:06:55;4.03;;;3.70;;
1346;SDS011;667;48.796;9.480;2023-02-21T00:09:40;4.80;;;3.80;;
1346;SDS011;667;48.796;9.480;2023-02-21T00:12:24;4.18;;;3.78;;
1346;SDS011;667;48.796;9.480;2023-02-21T00:15:08;6.43;;;4.25;;
1346;SDS011;667;48.796;9.480;2023-02-21T00:17:53;4.53;;;4.10;;
1346;SDS011;667;48.796;9.480;2023-02-21T00:20:37;4.38;;;3.45;;
1346;SDS011;667;48.796;9.480;2023-02-21T00:23:21;4.30;;;3.22;;
1346;SDS011;667;48.796;9.480;2023-02-21T00:26:05;4.30;;;3.90;;
1346;SDS011;667;48.796;9.480;2023-02-21T00:28:49;5.15;;;4.45;;
1346;SDS011;667;48.796;9.480;2023-02-21T00:31:34;4.63;;;4.05;;
1346;SDS011;667;48.796;9.480;2023-02-21T00:34:17;6.55;;;4.57;;
1346;SDS011;667;48.796;9.480;2023-02-21T00:37:01;6.75;;;4.70;;
1346;SDS011;667;48.796;9.480;2023-02-21T00:39:46;6.15;;;3.92;;
1346;SDS011;667;48.796;9.480;2023-02-21T00:42:30;7.30;;;4.60;;
1346;SDS011;667;48.796;9.480;2023-02-21T00:45:14;9.48;;;4.80;;
1346;SDS011;667;48.796;9.480;2023-02-21T00:47:58;6.35;;;4.90;;
1346;SDS011;667;48.796;9.480;2023-02-21T00:50:42;7.07;;;4.75;;
1346;SDS011;667;48.796;9.480;2023-02-21T00:53:26;5.07;;;4.57;;
1346;SDS011;667;48.796;9.480;2023-02-21T00:56:10;6.03;;;4.80;;
1346;SDS011;667;48.796;9.480;2023-02-21T00:58:54;7.20;;;5.22;;
1346;SDS011;667;48.796;9.480;2023-02-21T01:01:38;5.55;;;4.07;;
1346;SDS011;667;48.796;9.480;2023-02-21T01:04:22;5.68;;;4.05;;
1346;SDS011;667;48.796;9.480;2023-02-21T01:07:06;5.70;;;4.55;;
1346;SDS011;667;48.796;9.480;2023-02-21T01:09:50;5.72;;;4.50;;
1346;SDS011;667;48.796;9.480;2023-02-21T01:12:34;5.70;;;4.60;;
1346;SDS011;667;48.796;9.480;2023-02-21T01:15:18;4.05;;;3.65;;
1346;SDS011;667;48.796;9.480;2023-02-21T01:18:02;5.50;;;3.75;;
1346;SDS011;667;48.796;9.480;2023-02-21T01:20:47;5.07;;;4.40;;
1346;SDS011;667;48.796;9.480;2023-02-21T01:23:31;6.05;;;4.30;;
1346;SDS011;667;48.796;9.480;2023-02-21T01:26:15;5.13;;;4.50;;
1346;SDS011;667;48.796;9.480;2023-02-21T01:28:59;4.63;;;4.22;;
1346;SDS011;667;48.796;9.480;2023-02-21T01:31:43;4.50;;;4.00;;
1346;SDS011;667;48.796;9.480;2023-02-21T01:34:27;6.30;;;4.60;;
1346;SDS011;667;48.796;9.480;2023-02-21T01:37:11;4.32;;;3.85;;
1346;SDS011;667;48.796;9.480;2023-02-21T01:39:55;5.97;;;3.85;;
1346;SDS011;667;48.796;9.480;2023-02-21T01:42:39;5.40;;;4.03;;
1346;SDS011;667;48.796;9.480;2023-02-21T01:45:38;3.70;;;3.22;;
1346;SDS011;667;48.796;9.480;2023-02-21T01:48:28;9.50;;;3.90;;
1346;SDS011;667;48.796;9.480;2023-02-21T01:51:15;7.00;;;3.80;;
1346;SDS011;667;48.796;9.480;2023-02-21T01:54:02;4.80;;;3.70;;
1346;SDS011;667;48.796;9.480;2023-02-21T01:56:48;7.20;;;4.18;;
1346;SDS011;667;48.796;9.480;2023-02-21T01:59:32;4.68;;;3.50;;
1346;SDS011;667;48.796;9.480;2023-02-21T02:02:17;5.45;;;3.75;;
1346;SDS011;667;48.796;9.480;2023-02-21T02:05:05;4.25;;;3.75;;
1346;SDS011;667;48.796;9.480;2023-02-21T02:07:52;7.80;;;4.07;;
1346;SDS011;667;48.796;9.480;2023-02-21T02:10:37;5.50;;;4.07;;
1346;SDS011;667;48.796;9.480;2023-02-21T02:13:32;5.03;;;3.50;;
1346;SDS011;667;48.796;9.480;2023-02-21T02:18:54;5.65;;;4.10;;
1346;SDS011;667;48.796;9.480;2023-02-21T02:27:17;4.15;;;3.75;;
1346;SDS011;667;48.796;9.480;2023-02-21T02:33:00;7.32;;;4.57;;
1346;SDS011;667;48.796;9.480;2023-02-21T02:44:17;6.47;;;3.78;;
1346;SDS011;667;48.796;9.480;2023-02-21T02:47:05;4.90;;;3.53;;
1346;SDS011;667;48.796;9.480;2023-02-21T02:49:35;5.30;;;4.07;;
1346;SDS011;667;48.796;9.480;2023-02-21T02:52:05;8.27;;;4.40;;
1346;SDS011;667;48.796;9.480;2023-02-21T02:54:32;5.85;;;4.32;;
1346;SDS011;667;48.796;9.480;2023-02-21T02:56:58;6.13;;;4.37;;
1346;SDS011;667;48.796;9.480;2023-02-21T02:59:26;4.55;;;4.10;;
1346;SDS011;667;48.796;9.480;2023-02-21T03:10:17;5.03;;;4.32;;
1346;SDS011;667;48.796;9.480;2023-02-21T03:12:56;6.32;;;4.18;;
1346;SDS011;667;48.796;9.480;2023-02-21T03:18:08;5.15;;;4.28;;
1346;SDS011;667;48.796;9.480;2023-02-21T03:20:45;4.47;;;3.88;;
1346;SDS011;667;48.796;9.480;2023-02-21T03:23:18;4.85;;;3.50;;
1346;SDS011;667;48.796;9.480;2023-02-21T03:25:46;5.30;;;4.25;;
1346;SDS011;667;48.796;9.480;2023-02-21T03:28:14;4.55;;;3.53;;
1346;SDS011;667;48.796;9.480;2023-02-21T03:30:40;5.83;;;4.27;;
1346;SDS011;667;48.796;9.480;2023-02-21T03:33:06;6.07;;;3.92;;
1346;SDS011;667;48.796;9.480;2023-02-21T03:35:32;4.40;;;3.77;;
1346;SDS011;667;48.796;9.480;2023-02-21T03:37:58;4.90;;;4.33;;
1346;SDS011;667;48.796;9.480;2023-02-21T03:40:25;3.97;;;3.57;;
1346;SDS011;667;48.796;9.480;2023-02-21T03:42:53;9.15;;;4.18;;
1346;SDS011;667;48.796;9.480;2023-02-21T03:45:20;8.90;;;4.88;;
1346;SDS011;667;48.796;9.480;2023-02-21T03:47:49;4.50;;;4.10;;
1346;SDS011;667;48.796;9.480;2023-02-21T03:50:18;5.25;;;4.53;;
1346;SDS011;667;48.796;9.480;2023-02-21T03:52:44;5.37;;;3.70;;
1346;SDS011;667;48.796;9.480;2023-02-21T03:55:09;4.37;;;3.73;;
1346;SDS011;667;48.796;9.480;2023-02-21T03:57:35;4.50;;;3.63;;
1346;SDS011;667;48.796;9.480;2023-02-21T04:00:01;3.73;;;3.33;;
1346;SDS011;667;48.796;9.480;2023-02-21T04:02:26;4.63;;;3.93;;
1346;SDS011;667;48.796;9.480;2023-02-21T04:04:52;4.60;;;3.90;;
1346;SDS011;667;48.796;9.480;2023-02-21T04:07:18;4.07;;;3.50;;
1346;SDS011;667;48.796;9.480;2023-02-21T04:09:44;4.78;;;3.70;;
1346;SDS011;667;48.796;9.480;2023-02-21T04:12:11;6.15;;;3.80;;
1346;SDS011;667;48.796;9.480;2023-02-21T04:14:36;5.03;;;3.60;;
1346;SDS011;667;48.796;9.480;2023-02-21T04:17:02;3.90;;;3.00;;
1346;SDS011;667;48.796;9.480;2023-02-21T04:19:28;3.50;;;3.20;;
1346;SDS011;667;48.796;9.480;2023-02-21T04:21:54;3.27;;;3.00;;
1346;SDS011;667;48.796;9.480;2023-02-21T04:24:19;3.63;;;3.33;;
1346;SDS011;667;48.796;9.480;2023-02-21T04:26:45;4.10;;;3.70;;
1346;SDS011;667;48.796;9.480;2023-02-21T04:29:10;3.80;;;3.20;;
1346;SDS011;667;48.796;9.480;2023-02-21T04:31:36;4.23;;;2.83;;
1346;SDS011;667;48.796;9.480;2023-02-21T04:34:02;5.33;;;3.10;;
1346;SDS011;667;48.796;9.480;2023-02-21T04:36:28;5.93;;;3.53;;
1346;SDS011;667;48.796;9.480;2023-02-21T04:38:54;3.10;;;2.80;;
1346;SDS011;667;48.796;9.480;2023-02-21T04:41:19;3.30;;;2.67;;
1346;SDS011;667;48.796;9.480;2023-02-21T04:43:45;4.20;;;3.30;;
1346;SDS011;667;48.796;9.480;2023-02-21T04:46:15;3.83;;;3.47;;
1346;SDS011;667;48.796;9.480;2023-02-21T04:48:42;4.78;;;2.80;;
1346;SDS011;667;48.796;9.480;2023-02-21T04:51:09;4.10;;;3.50;;
1346;SDS011;667;48.796;9.480;2023-02-21T04:53:34;5.22;;;3.58;;
1346;SDS011;667;48.796;9.480;2023-02-21T04:56:00;3.37;;;3.07;;
1346;SDS011;667;48.796;9.480;2023-02-21T04:58:26;4.20;;;3.40;;
1346;SDS011;667;48.796;9.480;2023-02-21T05:00:51;3.30;;;3.00;;
1346;SDS011;667;48.796;9.480;2023-02-21T05:03:17;3.93;;;3.40;;
1346;SDS011;667;48.796;9.480;2023-02-21T05:05:42;4.40;;;3.17;;
1346;SDS011;667;48.796;9.480;2023-02-21T05:08:08;4.23;;;2.90;;
1346;SDS011;667;48.796;9.480;2023-02-21T05:10:34;4.70;;;2.80;;
1346;SDS011;667;48.796;9.480;2023-02-21T05:12:59;5.87;;;3.47;;
1346;SDS011;667;48.796;9.480;2023-02-21T05:15:25;3.73;;;3.33;;
1346;SDS011;667;48.796;9.480;2023-02-21T05:17:50;3.27;;;2.90;;
1346;SDS011;667;48.796;9.480;2023-02-21T05:20:16;5.00;;;3.23;;
1346;SDS011;667;48.796;9.480;2023-02-21T05:22:42;4.27;;;3.07;;
1346;SDS011;667;48.796;9.480;2023-02-21T05:25:20;5.97;;;3.63;;
1346;SDS011;667;48.796;9.480;2023-02-21T05:27:48;3.38;;;3.10;;
1346;SDS011;667;48.796;9.480;2023-02-21T05:30:15;2.70;;;2.50;;
1346;SDS011;667;48.796;9.480;2023-02-21T05:32:45;3.30;;;2.80;;
1346;SDS011;667;48.796;9.480;2023-02-21T05:35:10;4.35;;;3.40;;
1346;SDS011;667;48.796;9.480;2023-02-21T05:37:38;3.88;;;2.95;;
1346;SDS011;667;48.796;9.480;2023-02-21T05:40:04;4.00;;;3.00;;
1346;SDS011;667;48.796;9.480;2023-02-21T05:42:32;4.05;;;3.17;;
1346;SDS011;667;48.796;9.480;2023-02-21T05:45:00;3.20;;;2.90;;
1346;SDS011;667;48.796;9.480;2023-02-21T05:47:26;4.70;;;3.00;;
1346;SDS011;667;48.796;9.480;2023-02-21T05:49:51;3.00;;;2.70;;
1346;SDS011;667;48.796;9.480;2023-02-21T05:52:17;4.03;;;2.90;;
1346;SDS011;667;48.796;9.480;2023-02-21T05:54:43;3.40;;;3.00;;
1346;SDS011;667;48.796;9.480;2023-02-21T05:57:09;4.23;;;3.30;;
1346;SDS011;667;48.796;9.480;2023-02-21T05:59:36;3.90;;;3.50;;
1346;SDS011;667;48.796;9.480;2023-02-21T06:02:01;5.40;;;3.45;;
1346;SDS011;667;48.796;9.480;2023-02-21T06:04:27;5.07;;;3.20;;
1346;SDS011;667;48.796;9.480;2023-02-21T06:06:52;3.60;;;3.27;;
1346;SDS011;667;48.796;9.480;2023-02-21T06:09:18;3.07;;;2.87;;
1346;SDS011;667;48.796;9.480;2023-02-21T06:11:44;3.73;;;2.87;;
1346;SDS011;667;48.796;9.480;2023-02-21T06:14:17;4.73;;;4.00;;
1346;SDS011;667;48.796;9.480;2023-02-21T06:16:48;5.05;;;3.50;;
1346;SDS011;667;48.796;9.480;2023-02-21T06:19:14;4.20;;;3.30;;
1346;SDS011;667;48.796;9.480;2023-02-21T06:21:44;4.82;;;3.55;;
1346;SDS011;667;48.796;9.480;2023-02-21T06:24:10;4.85;;;3.10;;
1346;SDS011;667;48.796;9.480;2023-02-21T06:26:36;3.95;;;3.55;;
1346;SDS011;667;48.796;9.480;2023-02-21T06:29:04;3.80;;;3.40;;
1346;SDS011;667;48.796;9.480;2023-02-21T06:31:30;4.93;;;3.00;;
1346;SDS011;667;48.796;9.480;2023-02-21T06:33:56;5.10;;;3.30;;
1346;SDS011;667;48.796;9.480;2023-02-21T06:36:23;4.33;;;3.60;;
1346;SDS011;667;48.796;9.480;2023-02-21T06:38:51;3.60;;;3.30;;
1346;SDS011;667;48.796;9.480;2023-02-21T06:41:21;4.20;;;3.80;;
1346;SDS011;667;48.796;9.480;2023-02-21T06:43:51;4.20;;;3.40;;
1346;SDS011;667;48.796;9.480;2023-02-21T06:46:19;3.10;;;2.80;;
1346;SDS011;667;48.796;9.480;2023-02-21T06:48:46;3.20;;;2.83;;
1346;SDS011;667;48.796;9.480;2023-02-21T06:51:11;3.80;;;3.50;;
1346;SDS011;667;48.796;9.480;2023-02-21T06:53:38;4.45;;;3.22;;
1346;SDS011;667;48.796;9.480;2023-02-21T06:56:05;3.05;;;2.75;;
1346;SDS011;667;48.796;9.480;2023-02-21T06:58:31;4.95;;;4.30;;
1346;SDS011;667;48.796;9.480;2023-02-21T07:00:56;14.87;;;8.23;;
1346;SDS011;667;48.796;9.480;2023-02-21T07:03:22;12.37;;;6.80;;
1346;SDS011;667;48.796;9.480;2023-02-21T07:05:48;8.30;;;4.87;;
1346;SDS011;667;48.796;9.480;2023-02-21T07:08:13;7.13;;;4.20;;
1346;SDS011;667;48.796;9.480;2023-02-21T07:10:39;3.30;;;3.00;;
1346;SDS011;667;48.796;9.480;2023-02-21T07:13:07;2.88;;;2.50;;
1346;SDS011;667;48.796;9.480;2023-02-21T07:15:33;8.80;;;5.00;;
1346;SDS011;667;48.796;9.480;2023-02-21T07:17:58;3.50;;;3.20;;
1346;SDS011;667;48.796;9.480;2023-02-21T07:20:24;3.13;;;2.83;;
1346;SDS011;667;48.796;9.480;2023-02-21T07:22:49;3.57;;;3.23;;
1346;SDS011;667;48.796;9.480;2023-02-21T07:25:16;8.23;;;3.40;;
1346;SDS011;667;48.796;9.480;2023-02-21T07:27:45;4.57;;;3.78;;
1346;SDS011;667;48.796;9.480;2023-02-21T07:30:11;4.70;;;4.25;;
1346;SDS011;667;48.796;9.480;2023-02-21T07:32:37;6.00;;;5.40;;
1346;SDS011;667;48.796;9.480;2023-02-21T07:35:03;5.33;;;4.60;;
1346;SDS011;667;48.796;9.480;2023-02-21T07:37:28;6.60;;;5.70;;
1346;SDS011;667;48.796;9.480;2023-02-21T07:39:54;7.97;;;5.77;;
1346;SDS011;667;48.796;9.480;2023-02-21T07:42:20;6.67;;;5.93;;
1346;SDS011;667;48.796;9.480;2023-02-21T07:44:45;9.97;;;6.77;;
1346;SDS011;667;48.796;9.480;2023-02-21T07:47:11;7.57;;;6.50;;
1346;SDS011;667;48.796;9.480;2023-02-21T07:49:39;6.55;;;5.95;;
1346;SDS011;667;48.796;9.480;2023-02-21T07:52:10;7.47;;;6.72;;
1346;SDS011;667;48.796;9.480;2023-02-21T07:54:35;8.05;;;6.25;;
1346;SDS011;667;48.796;9.480;2023-02-21T07:57:01;10.20;;;6.63;;
1346;SDS011;667;48.796;9.480;2023-02-21T07:59:27;7.00;;;6.30;;
1346;SDS011;667;48.796;9.480;2023-02-21T08:01:52;9.87;;;6.90;;
1346;SDS011;667;48.796;9.480;2023-02-21T08:04:19;6.32;;;5.72;;
1346;SDS011;667;48.796;9.480;2023-02-21T08:06:46;9.02;;;6.88;;
1346;SDS011;667;48.796;9.480;2023-02-21T08:09:13;9.35;;;6.45;;
1346;SDS011;667;48.796;9.480;2023-02-21T08:11:38;6.43;;;5.83;;
1346;SDS011;667;48.796;9.480;2023-02-21T08:14:04;9.73;;;5.97;;
1346;SDS011;667;48.796;9.480;2023-02-21T08:16:30;7.28;;;5.65;;
1346;SDS011;667;48.796;9.480;2023-02-21T08:18:56;9.50;;;7.20;;
1346;SDS011;667;48.796;9.480;2023-02-21T08:21:22;6.13;;;5.53;;
1346;SDS011;667;48.796;9.480;2023-02-21T08:23:49;6.77;;;5.67;;
1346;SDS011;667;48.796;9.480;2023-02-21T08:26:17;5.85;;;5.28;;
1346;SDS011;667;48.796;9.480;2023-02-21T08:28:42;7.10;;;5.43;;
1346;SDS011;667;48.796;9.480;2023-02-21T08:31:08;8.37;;;6.57;;
1346;SDS011;667;48.796;9.480;2023-02-21T08:33:34;6.20;;;5.60;;
1346;SDS011;667;48.796;9.480;2023-02-21T08:35:59;7.60;;;5.93;;
1346;SDS011;667;48.796;9.480;2023-02-21T08:38:25;8.33;;;6.53;;
1346;SDS011;667;48.796;9.480;2023-02-21T08:40:51;7.27;;;6.53;;
1346;SDS011;667;48.796;9.480;2023-02-21T08:43:17;8.38;;;6.00;;
1346;SDS011;667;48.796;9.480;2023-02-21T08:45:42;7.50;;;6.00;;
1346;SDS011;667;48.796;9.480;2023-02-21T08:48:08;6.20;;;5.70;;
1346;SDS011;667;48.796;9.480;2023-02-21T08:50:34;6.20;;;5.60;;
1346;SDS011;667;48.796;9.480;2023-02-21T08:52:59;6.13;;;5.40;;
1346;SDS011;667;48.796;9.480;2023-02-21T08:55:25;7.17;;;6.00;;
1346;SDS011;667;48.796;9.480;2023-02-21T08:57:51;5.53;;;5.00;;
1346;SDS011;667;48.796;9.480;2023-02-21T09:00:18;6.30;;;5.22;;
1346;SDS011;667;48.796;9.480;2023-02-21T09:02:52;5.55;;;5.05;;
1346;SDS011;667;48.796;9.480;2023-02-21T09:05:19;6.00;;;5.38;;
1346;SDS011;667;48.796;9.480;2023-02-21T09:07:52;7.40;;;6.00;;
1346;SDS011;667;48.796;9.480;2023-02-21T09:10:22;7.53;;;5.20;;
1346;SDS011;667;48.796;9.480;2023-02-21T09:12:49;7.43;;;6.32;;
1346;SDS011;667;48.796;9.480;2023-02-21T09:15:14;7.90;;;5.73;;
1346;SDS011;667;48.796;9.480;2023-02-21T09:17:41;6.57;;;5.97;;
1346;SDS011;667;48.796;9.480;2023-02-21T09:20:07;6.27;;;5.67;;
1346;SDS011;667;48.796;9.480;2023-02-21T09:22:34;7.47;;;5.90;;
1346;SDS011;667;48.796;9.480;2023-02-21T09:25:00;5.93;;;5.43;;
1346;SDS011;667;48.796;9.480;2023-02-21T09:27:26;6.63;;;6.03;;
1346;SDS011;667;48.796;9.480;2023-02-21T09:30:14;7.82;;;5.85;;
1346;SDS011;667;48.796;9.480;2023-02-21T09:32:48;5.72;;;5.10;;
1346;SDS011;667;48.796;9.480;2023-02-21T09:35:14;5.95;;;5.45;;
1346;SDS011;667;48.796;9.480;2023-02-21T09:37:40;5.93;;;5.28;;
1346;SDS011;667;48.796;9.480;2023-02-21T09:42:48;7.72;;;6.22;;
1346;SDS011;667;48.796;9.480;2023-02-21T09:45:18;6.45;;;5.85;;
1346;SDS011;667;48.796;9.480;2023-02-21T09:47:48;6.53;;;5.88;;
1346;SDS011;667;48.796;9.480;2023-02-21T09:50:18;7.63;;;5.70;;
1346;SDS011;667;48.796;9.480;2023-02-21T09:52:51;6.30;;;5.70;;
1346;SDS011;667;48.796;9.480;2023-02-21T09:55:26;6.50;;;5.90;;
1346;SDS011;667;48.796;9.480;2023-02-21T09:58:05;8.00;;;7.20;;
1346;SDS011;667;48.796;9.480;2023-02-21T10:00:38;8.05;;;6.15;;
1346;SDS011;667;48.796;9.480;2023-02-21T10:06:10;5.60;;;5.10;;
1346;SDS011;667;48.796;9.480;2023-02-21T10:19:18;6.13;;;5.40;;
1346;SDS011;667;48.796;9.480;2023-02-21T10:21:50;6.00;;;4.73;;
1346;SDS011;667;48.796;9.480;2023-02-21T10:24:22;5.63;;;4.27;;
1346;SDS011;667;48.796;9.480;2023-02-21T10:27:12;5.20;;;4.40;;
1346;SDS011;667;48.796;9.480;2023-02-21T10:32:11;5.90;;;5.03;;
1346;SDS011;667;48.796;9.480;2023-02-21T10:34:36;6.90;;;5.70;;
1346;SDS011;667;48.796;9.480;2023-02-21T10:37:05;6.63;;;6.03;;
1346;SDS011;667;48.796;9.480;2023-02-21T10:39:42;6.43;;;5.00;;
1346;SDS011;667;48.796;9.480;2023-02-21T10:42:15;7.37;;;5.63;;
1346;SDS011;667;48.796;9.480;2023-02-21T10:45:08;6.00;;;3.70;;
1346;SDS011;667;48.796;9.480;2023-02-21T10:47:52;4.70;;;3.40;;
1346;SDS011;667;48.796;9.480;2023-02-21T10:50:38;6.63;;;3.57;;
1346;SDS011;667;48.796;9.480;2023-02-21T10:53:06;4.90;;;3.40;;
1346;SDS011;667;48.796;9.480;2023-02-21T10:55:32;4.30;;;3.33;;
1346;SDS011;667;48.796;9.480;2023-02-21T10:58:04;4.70;;;3.50;;
1346;SDS011;667;48.796;9.480;2023-02-21T11:03:20;6.20;;;3.00;;
1346;SDS011;667;48.796;9.480;2023-02-21T11:05:52;7.10;;;4.03;;
1346;SDS011;667;48.796;9.480;2023-02-21T11:11:29;9.50;;;3.33;;
1346;SDS011;667;48.796;9.480;2023-02-21T11:14:24;5.67;;;4.10;;
1346;SDS011;667;48.796;9.480;2023-02-21T11:22:44;4.40;;;3.50;;
1346;SDS011;667;48.796;9.480;2023-02-21T11:25:22;4.40;;;3.23;;
1346;SDS011;667;48.796;9.480;2023-02-21T11:30:30;4.77;;;2.97;;
1346;SDS011;667;48.796;9.480;2023-02-21T11:32:58;3.57;;;3.23;;
1346;SDS011;667;48.796;9.480;2023-02-21T11:35:32;4.20;;;2.83;;
1346;SDS011;667;48.796;9.480;2023-02-21T11:38:02;4.87;;;2.17;;
1346;SDS011;667;48.796;9.480;2023-02-21T11:45:42;3.57;;;2.33;;
1346;SDS011;667;48.796;9.480;2023-02-21T11:48:30;3.73;;;2.50;;
1346;SDS011;667;48.796;9.480;2023-02-21T11:51:03;2.30;;;2.07;;
1346;SDS011;667;48.796;9.480;2023-02-21T11:53:41;3.57;;;1.83;;
1346;SDS011;667;48.796;9.480;2023-02-21T12:09:44;2.20;;;2.00;;
1346;SDS011;667;48.796;9.480;2023-02-21T12:15:19;2.23;;;1.90;;
1346;SDS011;667;48.796;9.480;2023-02-21T12:20:59;3.07;;;2.53;;
1346;SDS011;667;48.796;9.480;2023-02-21T12:23:36;3.03;;;2.10;;
1346;SDS011;667;48.796;9.480;2023-02-21T12:37:09;2.87;;;1.97;;
1346;SDS011;667;48.796;9.480;2023-02-21T12:42:43;2.20;;;2.00;;
1346;SDS011;667;48.796;9.480;2023-02-21T12:50:35;2.20;;;1.80;;
1346;SDS011;667;48.796;9.480;2023-02-21T12:56:00;3.43;;;1.80;;
1346;SDS011;667;48.796;9.480;2023-02-21T12:58:42;2.90;;;1.80;;
1346;SDS011;667;48.796;9.480;2023-02-21T13:01:15;2.00;;;1.80;;
1346;SDS011;667;48.796;9.480;2023-02-21T13:03:53;3.97;;;2.10;;
1346;SDS011;667;48.796;9.480;2023-02-21T13:06:41;5.93;;;2.10;;
1346;SDS011;667;48.796;9.480;2023-02-21T13:12:06;4.53;;;1.80;;
1346;SDS011;667;48.796;9.480;2023-02-21T13:14:47;1.93;;;1.83;;
1346;SDS011;667;48.796;9.480;2023-02-21T13:17:20;2.23;;;1.93;;
1346;SDS011;667;48.796;9.480;2023-02-21T13:19:52;2.93;;;1.87;;
1346;SDS011;667;48.796;9.480;2023-02-21T13:28:45;2.20;;;1.50;;
1346;SDS011;667;48.796;9.480;2023-02-21T13:31:19;1.83;;;1.40;;
1346;SDS011;667;48.796;9.480;2023-02-21T13:33:48;1.80;;;1.50;;
1346;SDS011;667;48.796;9.480;2023-02-21T13:36:29;2.27;;;1.80;;
1346;SDS011;667;48.796;9.480;2023-02-21T13:41:32;1.90;;;1.37;;
1346;SDS011;667;48.796;9.480;2023-02-21T13:44:07;1.93;;;1.20;;
1346;SDS011;667;48.796;9.480;2023-02-21T13:55:47;1.17;;;1.07;;
1346;SDS011;667;48.796;9.480;2023-02-21T14:02:56;1.17;;;0.90;;
1346;SDS011;667;48.796;9.480;2023-02-21T14:24:22;1.80;;;1.10;;
1346;SDS011;667;48.796;9.480;2023-02-21T14:31:55;2.97;;;1.43;;
1346;SDS011;667;48.796;9.480;2023-02-21T14:34:32;1.17;;;1.07;;
1346;SDS011;667;48.796;9.480;2023-02-21T14:37:05;1.10;;;1.00;;
1346;SDS011;667;48.796;9.480;2023-02-21T14:39:42;2.50;;;1.47;;
1346;SDS011;667;48.796;9.480;2023-02-21T14:56:00;1.43;;;1.03;;
1346;SDS011;667;48.796;9.480;2023-02-21T15:04:42;1.80;;;1.00;;
1346;SDS011;667;48.796;9.480;2023-02-21T15:12:38;2.00;;;0.90;;
1346;SDS011;667;48.796;9.480;2023-02-21T15:15:23;1.20;;;1.10;;
1346;SDS011;667;48.796;9.480;2023-02-21T15:17:58;1.30;;;0.93;;
1346;SDS011;667;48.796;9.480;2023-02-21T15:20:25;2.80;;;1.53;;
1346;SDS011;667;48.796;9.480;2023-02-21T15:22:54;1.07;;;0.77;;
1346;SDS011;667;48.796;9.480;2023-02-21T15:25:25;0.90;;;0.90;;
1346;SDS011;667;48.796;9.480;2023-02-21T15:30:22;2.00;;;0.83;;
1346;SDS011;667;48.796;9.480;2023-02-21T15:32:58;6.73;;;1.87;;
1346;SDS011;667;48.796;9.480;2023-02-21T15:35:34;2.50;;;1.30;;
1346;SDS011;667;48.796;9.480;2023-02-21T15:38:02;2.87;;;1.53;;
1346;SDS011;667;48.796;9.480;2023-02-21T15:40:31;2.63;;;1.50;;
1346;SDS011;667;48.796;9.480;2023-02-21T15:42:57;2.90;;;1.60;;
1346;SDS011;667;48.796;9.480;2023-02-21T15:45:26;2.97;;;2.13;;
1346;SDS011;667;48.796;9.480;2023-02-21T15:47:58;4.50;;;2.70;;
1346;SDS011;667;48.796;9.480;2023-02-21T15:50:35;7.07;;;3.10;;
1346;SDS011;667;48.796;9.480;2023-02-21T15:53:24;6.87;;;2.27;;
1346;SDS011;667;48.796;9.480;2023-02-21T15:55:50;3.37;;;2.17;;
1346;SDS011;667;48.796;9.480;2023-02-21T16:00:48;2.73;;;2.47;;
1346;SDS011;667;48.796;9.480;2023-02-21T16:03:41;2.77;;;1.60;;
1346;SDS011;667;48.796;9.480;2023-02-21T16:08:37;5.67;;;1.80;;
1346;SDS011;667;48.796;9.480;2023-02-21T16:11:04;2.73;;;1.20;;
1346;SDS011;667;48.796;9.480;2023-02-21T16:13:36;1.83;;;1.13;;
1346;SDS011;667;48.796;9.480;2023-02-21T16:16:04;1.47;;;1.10;;
1346;SDS011;667;48.796;9.480;2023-02-21T16:18:31;2.25;;;1.08;;
1346;SDS011;667;48.796;9.480;2023-02-21T16:20:58;1.37;;;0.90;;
1346;SDS011;667;48.796;9.480;2023-02-21T16:23:29;1.63;;;1.52;;
1346;SDS011;667;48.796;9.480;2023-02-21T16:26:18;3.42;;;1.42;;
1346;SDS011;667;48.796;9.480;2023-02-21T16:28:52;1.77;;;1.23;;
1346;SDS011;667;48.796;9.480;2023-02-21T16:31:32;1.80;;;1.10;;
1346;SDS011;667;48.796;9.480;2023-02-21T16:34:00;4.75;;;1.75;;
1346;SDS011;667;48.796;9.480;2023-02-21T16:36:28;3.25;;;2.30;;
1346;SDS011;667;48.796;9.480;2023-02-21T16:38:55;2.47;;;1.85;;
1346;SDS011;667;48.796;9.480;2023-02-21T16:41:22;2.55;;;2.00;;
1346;SDS011;667;48.796;9.480;2023-02-21T16:43:48;3.60;;;3.30;;
1346;SDS011;667;48.796;9.480;2023-02-21T16:46:14;7.90;;;6.60;;
1346;SDS011;667;48.796;9.480;2023-02-21T16:48:46;3.40;;;2.50;;
1346;SDS011;667;48.796;9.480;2023-02-21T16:51:12;4.23;;;3.07;;
1346;SDS011;667;48.796;9.480;2023-02-21T16:53:38;2.90;;;2.70;;
1346;SDS011;667;48.796;9.480;2023-02-21T16:56:04;3.53;;;3.23;;
1346;SDS011;667;48.796;9.480;2023-02-21T16:58:41;3.17;;;2.13;;
1346;SDS011;667;48.796;9.480;2023-02-21T17:01:11;1.60;;;1.50;;
1346;SDS011;667;48.796;9.480;2023-02-21T17:03:47;1.88;;;1.60;;
1346;SDS011;667;48.796;9.480;2023-02-21T17:06:14;4.30;;;2.00;;
1346;SDS011;667;48.796;9.480;2023-02-21T17:08:44;3.80;;;1.70;;
1346;SDS011;667;48.796;9.480;2023-02-21T17:11:10;4.03;;;2.17;;
1346;SDS011;667;48.796;9.480;2023-02-21T17:13:36;3.80;;;1.70;;
1346;SDS011;667;48.796;9.480;2023-02-21T17:16:02;5.13;;;1.63;;
1346;SDS011;667;48.796;9.480;2023-02-21T17:18:27;3.67;;;2.00;;
1346;SDS011;667;48.796;9.480;2023-02-21T17:20:55;2.35;;;1.75;;
1346;SDS011;667;48.796;9.480;2023-02-21T17:23:21;1.40;;;1.30;;
1346;SDS011;667;48.796;9.480;2023-02-21T17:25:47;3.27;;;1.80;;
1346;SDS011;667;48.796;9.480;2023-02-21T17:28:12;6.83;;;1.30;;
1346;SDS011;667;48.796;9.480;2023-02-21T17:30:38;3.40;;;1.37;;
1346;SDS011;667;48.796;9.480;2023-02-21T17:33:03;2.97;;;2.20;;
1346;SDS011;667;48.796;9.480;2023-02-21T17:35:29;4.00;;;3.50;;
1346;SDS011;667;48.796;9.480;2023-02-21T17:37:56;6.10;;;4.57;;
1346;SDS011;667;48.796;9.480;2023-02-21T17:40:25;3.92;;;2.92;;
1346;SDS011;667;48.796;9.480;2023-02-21T17:42:51;3.00;;;2.13;;
1346;SDS011;667;48.796;9.480;2023-02-21T17:45:18;1.93;;;1.50;;
1346;SDS011;667;48.796;9.480;2023-02-21T17:47:44;2.35;;;2.03;;
1346;SDS011;667;48.796;9.480;2023-02-21T17:50:11;2.58;;;2.00;;
1346;SDS011;667;48.796;9.480;2023-02-21T17:52:38;5.22;;;3.10;;
1346;SDS011;667;48.796;9.480;2023-02-21T17:55:04;2.60;;;2.00;;
1346;SDS011;667;48.796;9.480;2023-02-21T17:57:31;3.45;;;2.47;;
1346;SDS011;667;48.796;9.480;2023-02-21T18:00:07;2.30;;;2.10;;
1346;SDS011;667;48.796;9.480;2023-02-21T18:02:36;1.98;;;1.77;;
1346;SDS011;667;48.796;9.480;2023-02-21T18:05:02;2.80;;;1.83;;
1346;SDS011;667;48.796;9.480;2023-02-21T18:07:28;3.05;;;2.75;;
1346;SDS011;667;48.796;9.480;2023-02-21T18:09:59;2.28;;;2.00;;
1346;SDS011;667;48.796;9.480;2023-02-21T18:12:30;5.30;;;4.07;;
1346;SDS011;667;48.796;9.480;2023-02-21T18:14:59;2.60;;;2.00;;
1346;SDS011;667;48.796;9.480;2023-02-21T18:17:25;4.40;;;1.70;;
1346;SDS011;667;48.796;9.480;2023-02-21T18:19:50;1.60;;;1.40;;
1346;SDS011;667;48.796;9.480;2023-02-21T18:22:16;4.03;;;2.90;;
1346;SDS011;667;48.796;9.480;2023-02-21T18:24:41;9.43;;;7.30;;
1346;SDS011;667;48.796;9.480;2023-02-21T18:27:07;5.20;;;4.70;;
1346;SDS011;667;48.796;9.480;2023-02-21T18:29:34;6.55;;;4.00;;
1346;SDS011;667;48.796;9.480;2023-02-21T18:31:59;4.00;;;3.70;;
1346;SDS011;667;48.796;9.480;2023-02-21T18:34:25;4.37;;;3.93;;
1346;SDS011;667;48.796;9.480;2023-02-21T18:36:51;3.93;;;3.50;;
1346;SDS011;667;48.796;9.480;2023-02-21T18:39:18;4.53;;;4.15;;
1346;SDS011;667;48.796;9.480;2023-02-21T18:41:45;4.65;;;3.25;;
1346;SDS011;667;48.796;9.480;2023-02-21T18:44:11;3.40;;;3.10;;
1346;SDS011;667;48.796;9.480;2023-02-21T18:46:37;12.27;;;10.30;;
1346;SDS011;667;48.796;9.480;2023-02-21T18:49:08;13.05;;;11.30;;
1346;SDS011;667;48.796;9.480;2023-02-21T18:51:34;9.10;;;7.10;;
1346;SDS011;667;48.796;9.480;2023-02-21T18:54:00;2.83;;;2.63;;
1346;SDS011;667;48.796;9.480;2023-02-21T18:56:26;3.00;;;2.05;;
1346;SDS011;667;48.796;9.480;2023-02-21T18:58:52;3.10;;;2.90;;
1346;SDS011;667;48.796;9.480;2023-02-21T19:01:19;4.47;;;2.10;;
1346;SDS011;667;48.796;9.480;2023-02-21T19:03:48;3.90;;;1.85;;
1346;SDS011;667;48.796;9.480;2023-02-21T19:06:15;5.47;;;2.00;;
1346;SDS011;667;48.796;9.480;2023-02-21T19:08:42;2.60;;;2.40;;